Time;durP1;ratioP1;P1;durP2;ratioP2;P2;SDS_P1;SDS_P2;PMS_P1;PMS_P2;Temp;Humidity;BMP_temperature;BMP_pressure;BME280_temperature;BME280_humidity;BME280_pressure;Samples;Min_cycle;Max_cycle;Signal;HPM_P1;HPM_P2
2021/12/22 00:00:46;;;;;;;2.15;1.33;;;18.30;58.20;;;;;;10386265;28;20056;-63
2021/12/22 00:05:48;;;;;;;2.42;1.80;;;18.30;58.10;;;;;;10374953;28;20117;-66
2021/12/22 00:10:49;;;;;;;2.83;1.67;;;18.40;58.00;;;;;;10389161;28;20049;-68
2021/12/22 00:15:50;;;;;;;3.03;1.70;;;18.40;57.80;;;;;;10373780;28;20097;-63
2021/12/22 00:20:51;;;;;;;2.65;1.90;;;18.40;57.70;;;;;;10373853;28;20423;-63
2021/12/22 00:25:51;;;;;;;3.35;1.50;;;18.40;57.70;;;;;;10373197;28;20483;-63
2021/12/22 00:30:52;;;;;;;3.95;2.00;;;18.40;57.60;;;;;;10373698;28;20113;-62
2021/12/22 00:35:53;;;;;;;3.03;1.75;;;18.40;57.50;;;;;;10387933;28;20041;-66
2021/12/22 00:40:54;;;;;;;2.10;1.42;;;18.40;57.70;;;;;;10373133;28;20033;-67
2021/12/22 00:45:56;;;;;;;3.38;2.05;;;18.40;57.60;;;;;;10371524;28;20128;-62
2021/12/22 00:50:57;;;;;;;4.10;2.00;;;18.40;57.40;;;;;;10372953;28;20060;-67
2021/12/22 00:55:58;;;;;;;2.42;1.45;;;18.40;57.50;;;;;;10372560;28;20038;-66
2021/12/22 01:00:59;;;;;;;3.53;2.17;;;18.40;57.50;;;;;;10384740;28;20029;-66
2021/12/22 01:06:00;;;;;;;2.85;2.28;;;18.40;57.40;;;;;;10372388;28;20034;-64
2021/12/22 01:11:01;;;;;;;2.88;1.70;;;18.40;57.30;;;;;;10372002;28;20141;-65
2021/12/22 01:16:02;;;;;;;2.30;1.60;;;18.40;57.40;;;;;;10371824;28;20084;-64
2021/12/22 01:21:42;;;;;;;2.53;1.80;;;18.40;57.30;;;;;;10370828;28;20141;-65
2021/12/22 01:26:34;;;;;;;3.45;2.05;;;18.40;57.20;;;;;;10370566;28;20057;-66
2021/12/22 01:31:35;;;;;;;2.67;1.65;;;18.30;57.30;;;;;;10371641;28;20480;-66
2021/12/22 01:36:37;;;;;;;3.55;2.13;;;18.40;57.20;;;;;;10371211;28;20054;-63
2021/12/22 01:41:38;;;;;;;2.88;2.05;;;18.40;57.10;;;;;;10370072;28;20034;-66
2021/12/22 01:52:06;;;;;;;3.15;1.83;;;18.40;57.00;;;;;;10372140;28;20050;-66
2021/12/22 01:57:11;;;;;;;3.35;1.85;;;18.40;57.10;;;;;;10371391;28;20030;-64
2021/12/22 02:02:14;;;;;;;3.60;2.20;;;18.40;56.90;;;;;;10381996;28;20049;-63
2021/12/22 02:07:15;;;;;;;3.33;2.30;;;18.40;56.70;;;;;;10370832;28;20492;-64
2021/12/22 02:12:16;;;;;;;2.65;1.90;;;18.40;56.90;;;;;;10370530;28;20030;-66
2021/12/22 02:17:17;;;;;;;2.75;1.63;;;18.40;57.00;;;;;;10370644;28;20034;-63
2021/12/22 02:22:18;;;;;;;3.80;2.08;;;18.40;56.80;;;;;;10370414;28;20033;-64
2021/12/22 02:27:31;;;;;;;3.30;1.73;;;18.40;56.80;;;;;;10370710;28;20030;-64
2021/12/22 02:37:52;;;;;;;3.30;2.05;;;18.40;56.70;;;;;;10370309;28;20038;-64
2021/12/22 02:43:04;;;;;;;3.10;2.53;;;18.40;56.70;;;;;;10369949;28;20034;-63
2021/12/22 02:48:05;;;;;;;3.00;2.42;;;18.40;56.80;;;;;;10376235;28;20034;-65
2021/12/22 02:53:15;;;;;;;3.42;2.00;;;18.30;56.70;;;;;;10377186;28;20057;-64
2021/12/22 02:58:34;;;;;;;;;;;18.40;56.60;;;;;;10376732;28;20065;-63
2021/12/22 03:03:53;;;;;;;2.65;1.92;;;18.50;56.40;;;;;;10389194;28;19948;-66
2021/12/22 03:08:54;;;;;;;2.80;1.85;;;18.40;56.30;;;;;;10375972;28;20180;-64
2021/12/22 03:13:55;;;;;;;2.80;2.00;;;18.40;56.40;;;;;;10376094;28;20172;-68
2021/12/22 03:18:56;;;;;;;3.42;2.13;;;18.40;56.50;;;;;;10376010;28;20048;-64
2021/12/22 03:23:57;;;;;;;3.53;1.83;;;18.40;56.40;;;;;;10375198;28;20034;-66
2021/12/22 03:28:58;;;;;;;2.65;1.90;;;18.40;56.20;;;;;;10376110;28;20053;-66
2021/12/22 03:33:59;;;;;;;2.45;1.75;;;18.40;56.20;;;;;;10375422;28;20046;-63
2021/12/22 03:39:00;;;;;;;3.85;2.60;;;18.40;56.10;;;;;;10374416;28;20132;-63
2021/12/22 03:44:06;;;;;;;3.42;2.22;;;18.40;56.10;;;;;;10375234;28;20439;-65
2021/12/22 03:49:10;;;;;;;3.10;1.92;;;18.40;56.10;;;;;;10375115;28;20576;-67
2021/12/22 03:54:12;;;;;;;4.40;2.15;;;18.30;56.10;;;;;;10373909;28;20033;-62
2021/12/22 03:59:13;;;;;;;3.17;2.08;;;18.40;56.10;;;;;;10373406;28;20053;-66
2021/12/22 04:04:17;;;;;;;3.90;2.50;;;18.50;56.00;;;;;;10387272;28;20388;-64
2021/12/22 04:09:26;;;;;;;3.30;2.10;;;18.40;56.10;;;;;;10375062;28;20037;-65
2021/12/22 04:14:26;;;;;;;3.30;2.22;;;18.40;56.10;;;;;;10374165;28;20061;-66
2021/12/22 04:19:27;;;;;;;2.85;2.00;;;18.50;56.00;;;;;;10373757;28;20042;-68
2021/12/22 04:24:28;;;;;;;2.97;2.10;;;18.40;55.90;;;;;;10374467;28;20038;-67
2021/12/22 04:29:29;;;;;;;3.42;2.33;;;18.40;56.10;;;;;;10373305;28;20101;-67
2021/12/22 04:34:29;;;;;;;2.95;1.90;;;18.40;55.90;;;;;;10373278;28;20060;-69
2021/12/22 04:39:32;;;;;;;2.92;2.08;;;18.40;55.80;;;;;;10371984;28;20125;-67
2021/12/22 04:44:33;;;;;;;3.17;2.15;;;18.40;55.90;;;;;;10373111;28;20038;-66
2021/12/22 04:49:34;;;;;;;2.70;1.83;;;18.40;55.90;;;;;;10372619;28;20111;-67
2021/12/22 04:54:46;;;;;;;2.88;2.10;;;18.40;55.80;;;;;;10372857;28;20033;-65
2021/12/22 04:59:47;;;;;;;3.97;2.10;;;18.40;55.70;;;;;;10376084;28;20044;-64
2021/12/22 05:04:47;;;;;;;3.92;2.40;;;18.40;55.70;;;;;;10381613;28;20022;-68
2021/12/22 05:09:48;;;;;;;3.83;2.30;;;18.40;55.90;;;;;;10371535;28;20046;-63
2021/12/22 05:14:50;;;;;;;3.00;2.20;;;18.40;55.90;;;;;;10371837;28;20034;-66
2021/12/22 05:19:50;;;;;;;3.70;2.53;;;18.40;55.80;;;;;;10372344;28;20038;-68
2021/12/22 05:24:51;;;;;;;2.42;1.85;;;18.50;55.70;;;;;;10371791;28;20109;-68
2021/12/22 05:29:52;;;;;;;3.45;2.78;;;18.40;55.70;;;;;;10371638;28;20121;-66
2021/12/22 05:34:53;;;;;;;3.05;2.20;;;18.50;55.70;;;;;;10370436;28;20042;-66
2021/12/22 05:39:57;;;;;;;3.08;2.08;;;18.50;55.60;;;;;;10370918;28;20117;-68
2021/12/22 05:44:57;;;;;;;4.35;2.40;;;18.40;55.80;;;;;;10370806;28;20472;-68
2021/12/22 05:49:58;;;;;;;3.45;1.88;;;18.40;55.70;;;;;;10368573;28;20121;-68
2021/12/22 05:54:59;;;;;;;4.22;2.60;;;18.50;55.70;;;;;;10369409;28;20109;-66
2021/12/22 06:00:00;;;;;;;3.83;2.65;;;18.40;55.70;;;;;;10373176;28;20196;-65
2021/12/22 06:05:00;;;;;;;4.18;2.65;;;18.40;55.90;;;;;;10376254;28;20126;-69
2021/12/22 06:10:02;;;;;;;5.15;2.42;;;18.50;56.00;;;;;;10366468;28;20076;-60
2021/12/22 06:15:04;;;;;;;9.73;2.97;;;18.50;55.90;;;;;;10370644;28;20032;-60
2021/12/22 06:20:06;;;;;;;8.60;3.35;;;18.60;56.30;;;;;;10372249;28;20042;-61
2021/12/22 06:25:07;;;;;;;8.25;3.35;;;18.60;57.50;;;;;;10375989;28;20409;-60
2021/12/22 06:30:08;;;;;;;6.15;2.78;;;18.50;57.40;;;;;;10378521;28;20046;-60
2021/12/22 06:35:09;;;;;;;8.50;3.85;;;18.50;58.50;;;;;;10374767;28;20528;-60
2021/12/22 06:40:11;;;;;;;8.35;4.00;;;18.50;58.10;;;;;;10375897;28;20038;-60
2021/12/22 06:45:14;;;;;;;17.50;3.58;;;18.40;58.70;;;;;;10371504;28;20038;-60
2021/12/22 06:50:14;;;;;;;8.50;3.50;;;18.30;58.80;;;;;;10358283;28;20121;-61
2021/12/22 06:55:15;;;;;;;11.15;3.40;;;18.20;58.80;;;;;;10358291;28;20430;-60
2021/12/22 07:00:16;;;;;;;17.73;4.18;;;18.20;58.70;;;;;;10382786;28;20128;-61
2021/12/22 07:05:17;;;;;;;12.73;4.50;;;18.30;59.10;;;;;;10381520;28;20033;-60
2021/12/22 07:10:18;;;;;;;14.88;4.25;;;18.20;58.70;;;;;;10376293;28;20487;-60
2021/12/22 07:15:19;;;;;;;11.23;3.78;;;18.20;58.80;;;;;;10375961;28;20436;-61
2021/12/22 07:20:20;;;;;;;10.73;4.10;;;18.20;58.40;;;;;;10368685;28;20450;-59
2021/12/22 07:25:24;;;;;;;14.60;5.28;;;18.10;58.30;;;;;;10372483;28;20513;-62
2021/12/22 07:30:25;;;;;;;21.25;4.85;;;18.10;59.00;;;;;;10373463;28;20388;-62
2021/12/22 07:35:49;;;;;;;15.63;5.28;;;18.10;59.40;;;;;;10371316;28;20096;-61
2021/12/22 07:40:51;;;;;;;19.48;5.55;;;18.10;58.80;;;;;;10372221;28;20136;-62
2021/12/22 07:45:53;;;;;;;18.00;6.10;;;18.00;58.40;;;;;;10374598;28;20037;-62
2021/12/22 07:50:54;;;;;;;16.15;5.47;;;18.00;58.10;;;;;;10374790;28;20034;-61
2021/12/22 07:55:55;;;;;;;14.90;6.40;;;17.90;57.90;;;;;;10375896;28;20030;-61
2021/12/22 08:00:57;;;;;;;11.00;4.97;;;17.90;57.50;;;;;;10373956;28;20084;-61
2021/12/22 08:05:57;;;;;;;10.80;5.43;;;17.90;57.40;;;;;;10374132;28;20539;-63
2021/12/22 08:10:58;;;;;;;12.30;6.00;;;18.00;57.20;;;;;;10373522;28;20022;-62
2021/12/22 08:15:59;;;;;;;10.63;5.40;;;17.90;56.80;;;;;;10372551;28;20029;-63
2021/12/22 08:20:59;;;;;;;13.95;6.43;;;17.90;56.50;;;;;;10372894;28;20030;-62
2021/12/22 08:26:00;;;;;;;15.30;6.03;;;18.00;56.10;;;;;;10372592;28;20038;-61
2021/12/22 08:31:01;;;;;;;11.30;5.13;;;18.00;55.60;;;;;;10370998;28;20030;-62
2021/12/22 08:41:47;;;;;;;14.20;6.28;;;18.00;55.00;;;;;;10307728;28;20042;-61
2021/12/22 08:46:52;;;;;;;14.93;6.45;;;17.90;54.90;;;;;;10343693;28;20058;-62
2021/12/22 08:51:54;;;;;;;12.55;6.05;;;18.10;54.80;;;;;;10367712;28;20393;-62
2021/12/22 08:56:55;;;;;;;11.98;5.68;;;18.10;54.90;;;;;;10353029;28;20029;-62
2021/12/22 09:01:57;;;;;;;14.95;6.38;;;18.20;55.00;;;;;;10373111;28;20037;-62
2021/12/22 09:06:57;;;;;;;12.30;6.50;;;18.20;55.20;;;;;;10367444;28;20034;-62
2021/12/22 09:11:58;;;;;;;11.13;6.07;;;18.20;55.50;;;;;;10366992;28;20029;-62
2021/12/22 09:16:59;;;;;;;12.57;5.70;;;18.20;55.70;;;;;;10380814;28;20041;-62
2021/12/22 09:22:00;;;;;;;10.75;5.20;;;18.20;55.80;;;;;;10371797;28;20520;-62
2021/12/22 09:27:00;;;;;;;9.35;5.15;;;18.20;55.90;;;;;;10371654;28;20381;-62
2021/12/22 09:32:01;;;;;;;8.93;5.18;;;18.20;56.10;;;;;;10370562;28;20044;-62
2021/12/22 09:37:02;;;;;;;9.50;4.68;;;18.20;56.00;;;;;;10370833;28;20087;-62
2021/12/22 09:42:04;;;;;;;10.43;5.03;;;18.30;56.10;;;;;;10371587;28;20380;-62
2021/12/22 09:47:05;;;;;;;9.13;5.45;;;18.30;56.00;;;;;;10371040;28;20062;-63
2021/12/22 09:52:27;;;;;;;7.30;4.68;;;18.30;56.30;;;;;;10370700;28;20033;-62
2021/12/22 09:57:29;;;;;;;6.20;5.00;;;18.30;56.10;;;;;;10378319;28;20053;-62
2021/12/22 10:02:30;;;;;;;7.57;4.53;;;18.30;56.20;;;;;;10380683;28;20040;-62
2021/12/22 10:07:37;;;;;;;10.52;5.50;;;18.20;56.40;;;;;;10378726;28;20044;-61
2021/12/22 10:12:39;;;;;;;7.80;5.60;;;18.20;56.60;;;;;;10378628;28;20383;-63
2021/12/22 10:17:44;;;;;;;6.60;4.80;;;18.20;56.50;;;;;;10377310;28;20040;-62
2021/12/22 10:22:49;;;;;;;8.52;5.03;;;18.10;56.80;;;;;;10373705;28;20030;-63
2021/12/22 10:28:07;;;;;;;6.10;4.68;;;18.10;56.80;;;;;;10364725;28;20124;-63
2021/12/22 10:33:15;;;;;;;8.68;5.07;;;18.10;56.90;;;;;;10361093;28;20116;-63
2021/12/22 10:38:20;;;;;;;6.72;4.82;;;18.10;56.90;;;;;;10388744;28;20038;-63
2021/12/22 10:43:28;;;;;;;7.45;5.30;;;18.10;57.10;;;;;;10366011;28;20045;-63
2021/12/22 10:53:56;;;;;;;6.32;4.55;;;18.10;57.10;;;;;;10375766;28;20399;-64
2021/12/22 10:59:06;;;;;;;7.55;4.55;;;18.10;57.30;;;;;;10376845;28;20464;-63
2021/12/22 11:04:21;;;;;;;7.38;5.03;;;18.10;57.40;;;;;;10378797;28;20037;-63
2021/12/22 11:09:23;;;;;;;6.75;4.35;;;18.00;57.50;;;;;;10375794;28;20380;-63
2021/12/22 11:14:37;;;;;;;6.45;4.25;;;18.10;57.60;;;;;;10373494;28;20062;-63
2021/12/22 11:19:57;;;;;;;6.65;4.10;;;18.00;57.60;;;;;;10376138;28;20033;-62
2021/12/22 11:24:59;;;;;;;9.45;5.28;;;18.10;57.60;;;;;;10373634;28;20030;-61
2021/12/22 11:30:00;;;;;;;6.40;4.18;;;18.10;57.80;;;;;;10374561;28;20095;-62
2021/12/22 11:35:08;;;;;;;6.75;4.15;;;18.00;57.90;;;;;;10374171;28;20179;-62
2021/12/22 11:40:11;;;;;;;7.15;4.15;;;18.00;58.00;;;;;;10375242;28;20498;-62
2021/12/22 11:45:25;;;;;;;5.43;4.32;;;18.00;58.00;;;;;;10375542;28;20034;-61
2021/12/22 11:50:33;;;;;;;7.45;4.60;;;17.90;58.30;;;;;;10374886;28;20071;-62
2021/12/22 11:55:46;;;;;;;5.85;4.07;;;17.90;58.50;;;;;;10373815;28;20359;-62
2021/12/22 12:01:11;;;;;;;5.45;3.90;;;17.90;58.60;;;;;;10373572;28;20092;-62
2021/12/22 12:06:19;;;;;;;8.70;4.53;;;17.90;58.60;;;;;;10373915;28;20034;-62
2021/12/22 12:11:38;;;;;;;5.53;4.38;;;17.90;58.80;;;;;;10373214;28;20451;-61
2021/12/22 12:21:59;;;;;;;5.30;4.03;;;17.90;58.70;;;;;;10373050;28;20041;-62
2021/12/22 12:27:21;;;;;;;5.03;3.83;;;17.90;58.70;;;;;;10360155;28;20108;-62
2021/12/22 12:32:40;;;;;;;5.78;3.88;;;17.90;58.50;;;;;;10372893;28;20034;-62
2021/12/22 12:38:06;;;;;;;7.10;3.78;;;17.80;58.40;;;;;;10372728;28;20407;-62
2021/12/22 12:43:06;;;;;;;5.75;3.92;;;17.80;58.50;;;;;;10372782;28;20446;-62
2021/12/22 12:48:30;;;;;;;6.72;4.43;;;17.80;58.60;;;;;;10372140;28;20034;-61
2021/12/22 12:53:36;;;;;;;6.03;4.15;;;17.80;58.50;;;;;;10372830;28;20049;-62
2021/12/22 12:59:02;;;;;;;5.30;3.55;;;17.80;58.30;;;;;;10371002;28;20044;-62
2021/12/22 13:04:18;;;;;;;9.93;4.82;;;17.80;58.20;;;;;;10374158;28;20088;-64
2021/12/22 13:09:31;;;;;;;8.30;4.35;;;17.80;58.30;;;;;;10372395;28;20030;-63
2021/12/22 13:19:55;;;;;;;9.77;4.57;;;18.00;60.10;;;;;;10370824;28;20038;-61
2021/12/22 13:25:15;;;;;;;14.45;4.63;;;18.10;60.00;;;;;;10371675;28;20030;-61
2021/12/22 13:30:22;;;;;;;11.52;4.53;;;18.10;60.30;;;;;;10370393;28;20069;-61
2021/12/22 13:35:27;;;;;;;19.08;5.10;;;18.00;60.80;;;;;;10369329;28;20492;-61
2021/12/22 13:41:03;;;;;;;21.67;5.43;;;17.90;60.70;;;;;;10369487;28;20045;-61
2021/12/22 13:46:13;;;;;;;25.85;5.95;;;17.90;60.80;;;;;;10368031;28;20026;-60
2021/12/22 13:51:22;;;;;;;23.58;5.10;;;17.90;61.30;;;;;;10370702;28;20053;-60
2021/12/22 13:56:23;;;;;;;14.23;5.07;;;17.80;60.90;;;;;;10369148;28;20033;-60
2021/12/22 14:01:48;;;;;;;14.27;4.75;;;17.80;60.70;;;;;;10372533;28;20037;-60
2021/12/22 14:06:53;;;;;;;15.68;5.28;;;17.80;60.90;;;;;;10369276;28;20044;-60
2021/12/22 14:12:09;;;;;;;19.38;4.50;;;17.80;61.40;;;;;;10368408;28;20044;-60
2021/12/22 14:17:18;;;;;;;15.13;4.85;;;17.80;60.80;;;;;;10369396;28;20514;-61
2021/12/22 14:22:28;;;;;;;9.88;3.85;;;17.90;61.10;;;;;;10370036;28;20042;-60
2021/12/22 14:27:32;;;;;;;11.73;4.10;;;17.80;61.20;;;;;;10361083;28;20052;-61
2021/12/22 14:32:36;;;;;;;13.38;4.80;;;17.80;61.10;;;;;;10367936;28;20026;-59
2021/12/22 14:37:44;;;;;;;10.23;4.45;;;17.90;61.00;;;;;;10365402;28;20054;-60
2021/12/22 14:43:06;;;;;;;10.35;3.47;;;17.90;61.10;;;;;;10373492;28;20428;-60
2021/12/22 14:48:22;;;;;;;14.70;4.40;;;17.90;61.10;;;;;;10373961;28;20033;-60
2021/12/22 14:53:41;;;;;;;17.98;3.80;;;17.90;61.10;;;;;;10373809;28;20365;-61
2021/12/22 14:58:42;;;;;;;13.95;5.47;;;17.90;60.70;;;;;;10383628;28;20403;-60
2021/12/22 15:03:43;;;;;;;12.10;4.32;;;17.90;60.50;;;;;;10375871;28;20125;-61
2021/12/22 15:08:44;;;;;;;15.05;4.50;;;17.90;60.20;;;;;;10375938;28;20068;-61
2021/12/22 15:13:46;;;;;;;15.15;4.82;;;17.90;60.40;;;;;;10360180;28;20050;-61
2021/12/22 15:18:47;;;;;;;12.57;4.07;;;18.00;60.60;;;;;;10369008;28;20490;-62
2021/12/22 15:23:48;;;;;;;15.30;4.65;;;18.00;60.60;;;;;;10375832;28;20060;-60
2021/12/22 15:28:53;;;;;;;10.88;4.03;;;18.00;61.10;;;;;;10376228;28;20034;-60
2021/12/22 15:33:55;;;;;;;13.13;3.58;;;18.00;61.00;;;;;;10374410;28;20046;-61
2021/12/22 15:38:55;;;;;;;9.60;3.30;;;18.00;61.10;;;;;;10372949;28;20083;-61
2021/12/22 15:43:56;;;;;;;9.80;3.35;;;18.00;61.20;;;;;;10374476;28;20048;-61
2021/12/22 15:48:57;;;;;;;8.45;3.70;;;18.00;61.30;;;;;;10375111;28;20117;-61
2021/12/22 15:53:57;;;;;;;8.90;4.18;;;18.00;61.30;;;;;;10373751;28;20130;-61
2021/12/22 15:58:58;;;;;;;8.07;3.65;;;18.00;62.40;;;;;;10373318;28;20038;-60
2021/12/22 16:03:59;;;;;;;12.75;3.75;;;18.00;62.10;;;;;;10381791;28;20030;-60
2021/12/22 16:08:59;;;;;;;7.97;3.85;;;18.00;61.90;;;;;;10374376;28;20117;-60
2021/12/22 16:14:00;;;;;;;11.35;3.40;;;18.00;61.60;;;;;;10373734;28;20525;-61
2021/12/22 16:19:01;;;;;;;9.85;4.57;;;18.00;61.40;;;;;;10371492;28;20026;-60
2021/12/22 16:24:02;;;;;;;7.70;3.28;;;17.90;61.30;;;;;;10370880;28;20076;-61
2021/12/22 16:29:06;;;;;;;7.47;3.25;;;17.90;61.20;;;;;;10371650;28;20042;-61
2021/12/22 16:34:07;;;;;;;7.43;3.00;;;18.00;60.70;;;;;;10372820;28;20057;-61
2021/12/22 16:39:08;;;;;;;9.63;3.85;;;18.10;60.20;;;;;;10373066;28;20050;-61
2021/12/22 16:44:10;;;;;;;8.68;3.53;;;18.30;59.90;;;;;;10373054;28;20365;-61
2021/12/22 16:49:10;;;;;;;8.88;4.53;;;18.30;59.60;;;;;;10377727;28;20120;-61
2021/12/22 16:54:11;;;;;;;9.23;5.22;;;18.40;59.50;;;;;;10376007;28;20036;-61
2021/12/22 16:59:12;;;;;;;11.20;5.93;;;18.50;59.30;;;;;;10372152;28;20045;-60
2021/12/22 17:04:15;;;;;;;14.95;6.47;;;18.60;62.60;;;;;;10370305;28;20112;-60
2021/12/22 17:09:15;;;;;;;14.60;6.55;;;18.90;61.80;;;;;;10372643;28;20141;-60
2021/12/22 17:14:16;;;;;;;8.15;4.82;;;18.70;64.20;;;;;;10372073;28;20156;-60
2021/12/22 17:19:16;;;;;;;10.50;4.97;;;18.60;64.90;;;;;;10372468;28;20030;-61
2021/12/22 17:24:17;;;;;;;11.25;3.83;;;18.60;64.80;;;;;;10371537;28;20060;-60
2021/12/22 17:29:19;;;;;;;8.48;4.18;;;18.60;63.90;;;;;;10371423;28;20429;-60
2021/12/22 17:34:19;;;;;;;12.73;5.43;;;18.50;63.90;;;;;;10367189;28;20045;-60
2021/12/22 17:39:21;;;;;;;12.77;5.25;;;18.50;63.70;;;;;;10370239;28;20040;-60
2021/12/22 17:44:21;;;;;;;12.55;4.28;;;18.40;64.10;;;;;;10371056;28;20037;-60
2021/12/22 17:49:24;;;;;;;9.75;4.55;;;18.40;63.30;;;;;;10371486;28;20128;-60
2021/12/22 17:54:25;;;;;;;9.23;3.83;;;18.40;63.40;;;;;;10370777;28;20496;-60
2021/12/22 17:59:25;;;;;;;9.80;4.18;;;18.40;63.40;;;;;;10360411;28;20030;-61
2021/12/22 18:04:27;;;;;;;8.55;3.60;;;18.30;63.00;;;;;;10358890;28;20038;-60
2021/12/22 18:09:27;;;;;;;11.93;4.63;;;18.30;62.90;;;;;;10370353;28;20040;-60
2021/12/22 18:14:28;;;;;;;9.90;4.70;;;18.20;62.70;;;;;;10368646;28;20041;-60
2021/12/22 18:19:30;;;;;;;7.50;3.78;;;18.10;62.60;;;;;;10376503;28;20121;-59
2021/12/22 18:24:31;;;;;;;7.65;4.10;;;18.10;62.40;;;;;;10374825;28;20096;-60
2021/12/22 18:29:32;;;;;;;10.35;4.22;;;18.10;62.00;;;;;;10376208;28;20046;-60
2021/12/22 18:34:34;;;;;;;10.80;4.13;;;18.20;62.00;;;;;;10375904;28;20045;-61
2021/12/22 18:39:35;;;;;;;8.73;4.78;;;18.20;61.90;;;;;;10377303;28;20042;-60
2021/12/22 18:44:36;;;;;;;9.23;3.30;;;18.30;63.00;;;;;;10377077;28;20033;-59
2021/12/22 18:49:40;;;;;;;5.88;3.47;;;18.30;63.30;;;;;;10377762;28;20108;-61
2021/12/22 18:54:42;;;;;;;8.50;3.47;;;18.20;63.10;;;;;;10376224;28;20042;-62
2021/12/22 18:59:44;;;;;;;6.20;3.65;;;18.30;63.30;;;;;;10377195;28;20033;-60
2021/12/22 19:04:45;;;;;;;8.85;3.70;;;18.30;63.20;;;;;;10376478;28;20081;-60
2021/12/22 19:09:45;;;;;;;5.70;3.67;;;18.30;62.80;;;;;;10377132;28;20428;-59
2021/12/22 19:14:46;;;;;;;4.85;3.65;;;18.30;63.10;;;;;;10376807;28;20036;-60
2021/12/22 19:19:47;;;;;;;7.68;4.00;;;18.20;63.20;;;;;;10376895;28;20041;-59
2021/12/22 19:24:47;;;;;;;5.75;3.70;;;18.30;63.30;;;;;;10376180;28;20125;-60
2021/12/22 19:29:48;;;;;;;7.53;3.50;;;18.20;63.50;;;;;;10375814;28;20044;-62
2021/12/22 19:34:49;;;;;;;7.88;4.28;;;18.30;63.30;;;;;;10375775;28;20129;-60
2021/12/22 19:39:50;;;;;;;4.82;3.08;;;18.20;63.30;;;;;;10376142;28;20034;-60
2021/12/22 19:44:50;;;;;;;8.18;5.15;;;18.30;63.30;;;;;;10374965;28;20038;-60
2021/12/22 19:49:51;;;;;;;4.32;2.97;;;18.20;63.80;;;;;;10375107;28;20029;-60
2021/12/22 19:54:52;;;;;;;5.25;3.17;;;18.20;63.50;;;;;;10375035;28;20034;-60
2021/12/22 19:59:53;;;;;;;4.35;3.25;;;18.20;63.30;;;;;;10379549;28;20108;-60
2021/12/22 20:04:53;;;;;;;7.25;3.80;;;18.20;63.40;;;;;;10381665;28;20080;-60
2021/12/22 20:09:54;;;;;;;6.38;3.72;;;18.20;63.60;;;;;;10373213;28;20110;-60
2021/12/22 20:14:55;;;;;;;5.47;3.33;;;18.20;63.20;;;;;;10372547;28;20120;-61
2021/12/22 20:19:55;;;;;;;5.90;3.97;;;18.20;63.50;;;;;;10373473;28;20041;-61
2021/12/22 20:24:56;;;;;;;5.53;3.58;;;18.20;63.30;;;;;;10374035;28;20041;-61
2021/12/22 20:29:57;;;;;;;5.95;3.47;;;18.20;63.30;;;;;;10374086;28;20073;-61
2021/12/22 20:34:58;;;;;;;4.57;3.60;;;18.20;63.10;;;;;;10371014;28;20045;-60
2021/12/22 20:39:59;;;;;;;7.68;3.65;;;18.20;62.60;;;;;;10370321;28;20048;-61
2021/12/22 20:45:00;;;;;;;6.90;3.00;;;18.10;62.50;;;;;;10367464;28;20144;-60
2021/12/22 20:50:01;;;;;;;10.15;3.70;;;18.10;62.30;;;;;;10367053;28;20044;-61
2021/12/22 20:55:05;;;;;;;7.47;4.10;;;18.10;62.20;;;;;;10370957;28;20553;-60
2021/12/22 21:00:11;;;;;;;4.60;3.33;;;18.10;61.90;;;;;;10371683;28;20435;-61
2021/12/22 21:05:13;;;;;;;4.40;2.92;;;18.10;61.70;;;;;;10367746;28;20033;-61
2021/12/22 21:10:18;;;;;;;4.38;3.63;;;18.10;61.40;;;;;;10370915;28;20095;-61
2021/12/22 21:15:19;;;;;;;5.88;3.63;;;18.20;61.20;;;;;;10367170;28;20480;-59
2021/12/22 21:20:20;;;;;;;5.82;3.38;;;18.20;61.20;;;;;;10370488;28;20029;-60
2021/12/22 21:25:21;;;;;;;5.25;3.75;;;18.20;61.10;;;;;;10371670;28;20480;-59
2021/12/22 21:30:25;;;;;;;5.68;3.15;;;18.10;60.80;;;;;;10372103;28;20510;-60
2021/12/22 21:35:27;;;;;;;3.72;3.30;;;18.10;60.80;;;;;;10371313;28;20050;-61
2021/12/22 21:40:28;;;;;;;3.88;3.28;;;18.10;60.60;;;;;;10371737;28;20034;-60
2021/12/22 21:45:29;;;;;;;5.78;3.50;;;18.20;60.50;;;;;;10370507;28;20038;-61
2021/12/22 21:50:32;;;;;;;5.78;3.53;;;18.10;60.20;;;;;;10371159;28;20262;-61
2021/12/22 21:55:36;;;;;;;4.80;2.90;;;18.20;60.20;;;;;;10363321;28;20034;-61
2021/12/22 22:00:37;;;;;;;6.38;4.00;;;18.20;60.00;;;;;;10378995;28;20467;-60
2021/12/22 22:05:40;;;;;;;5.38;3.50;;;18.20;60.00;;;;;;10372581;28;20058;-60
2021/12/22 22:10:41;;;;;;;4.90;2.90;;;18.20;59.80;;;;;;10358757;28;20034;-59
2021/12/22 22:15:42;;;;;;;4.03;2.80;;;18.20;59.80;;;;;;10367456;28;20061;-60
2021/12/22 22:20:44;;;;;;;3.75;2.80;;;18.20;59.60;;;;;;10366243;28;20526;-60
2021/12/22 22:25:45;;;;;;;5.18;3.42;;;18.20;59.40;;;;;;10369333;28;20060;-61
2021/12/22 22:30:47;;;;;;;4.00;3.40;;;18.20;59.40;;;;;;10371042;28;20464;-60
2021/12/22 22:35:47;;;;;;;5.28;2.88;;;18.20;59.20;;;;;;10368808;28;20042;-60
2021/12/22 22:40:48;;;;;;;4.00;2.85;;;18.20;59.10;;;;;;10370661;28;20026;-59
2021/12/22 22:45:49;;;;;;;3.60;2.70;;;18.20;59.10;;;;;;10370665;28;20407;-60
2021/12/22 22:50:50;;;;;;;3.70;3.15;;;18.20;58.90;;;;;;10370486;28;20117;-60
2021/12/22 22:55:50;;;;;;;5.25;3.05;;;18.20;58.80;;;;;;10370007;28;20034;-61
2021/12/22 23:00:52;;;;;;;3.75;2.83;;;18.20;58.70;;;;;;10382265;28;20053;-60
2021/12/22 23:05:52;;;;;;;4.32;3.13;;;18.20;58.60;;;;;;10376483;28;20034;-60
2021/12/22 23:10:53;;;;;;;4.55;3.17;;;18.20;58.40;;;;;;10376056;28;20038;-60
2021/12/22 23:15:58;;;;;;;3.53;2.72;;;18.30;58.30;;;;;;10376710;28;20392;-60
2021/12/22 23:20:59;;;;;;;4.05;2.80;;;18.30;58.20;;;;;;10376709;28;20026;-61
2021/12/22 23:26:00;;;;;;;3.13;2.30;;;18.30;58.30;;;;;;10376030;28;20048;-59
2021/12/22 23:31:03;;;;;;;3.72;2.60;;;18.20;58.20;;;;;;10376594;28;20091;-60
2021/12/22 23:36:17;;;;;;;4.38;3.10;;;18.20;58.30;;;;;;10375711;28;20510;-61
2021/12/22 23:51:38;;;;;;;3.87;3.10;;;18.20;58.20;;;;;;10375772;28;20034;-61
2021/12/22 23:56:40;;;;;;;3.65;2.75;;;18.20;58.10;;;;;;10374873;28;20480;-61
